sensor_id;sensor_type;location;lat;lon;timestamp;temperature;humidity
24226;DHT22;51462;51.422;5.514;2023-04-24T00:00:51;11.10;99.90
24226;DHT22;51462;51.422;5.514;2023-04-24T00:03:17;11.20;99.90
24226;DHT22;51462;51.422;5.514;2023-04-24T00:05:46;11.20;99.90
24226;DHT22;51462;51.422;5.514;2023-04-24T00:08:12;11.00;99.90
24226;DHT22;51462;51.422;5.514;2023-04-24T00:10:37;10.70;99.90
24226;DHT22;51462;51.422;5.514;2023-04-24T00:13:03;10.40;99.90
24226;DHT22;51462;51.422;5.514;2023-04-24T00:15:28;10.50;99.90
24226;DHT22;51462;51.422;5.514;2023-04-24T00:17:54;10.50;99.90
24226;DHT22;51462;51.422;5.514;2023-04-24T00:20:19;10.50;99.90
24226;DHT22;51462;51.422;5.514;2023-04-24T00:22:45;10.50;99.90
24226;DHT22;51462;51.422;5.514;2023-04-24T00:25:11;10.60;99.90
24226;DHT22;51462;51.422;5.514;2023-04-24T00:27:36;10.70;99.90
24226;DHT22;51462;51.422;5.514;2023-04-24T00:30:03;10.70;99.90
24226;DHT22;51462;51.422;5.514;2023-04-24T00:32:28;10.80;99.90
24226;DHT22;51462;51.422;5.514;2023-04-24T00:34:54;10.60;99.90
24226;DHT22;51462;51.422;5.514;2023-04-24T00:37:19;10.70;99.90
24226;DHT22;51462;51.422;5.514;2023-04-24T00:39:45;10.70;99.90
24226;DHT22;51462;51.422;5.514;2023-04-24T00:42:11;10.50;99.90
24226;DHT22;51462;51.422;5.514;2023-04-24T00:44:37;10.60;99.90
24226;DHT22;51462;51.422;5.514;2023-04-24T00:47:03;10.60;99.90
24226;DHT22;51462;51.422;5.514;2023-04-24T00:49:28;10.60;99.90
24226;DHT22;51462;51.422;5.514;2023-04-24T00:51:54;10.70;99.90
24226;DHT22;51462;51.422;5.514;2023-04-24T00:54:20;10.50;99.90
24226;DHT22;51462;51.422;5.514;2023-04-24T00:56:46;10.40;99.90
24226;DHT22;51462;51.422;5.514;2023-04-24T00:59:12;10.40;99.90
24226;DHT22;51462;51.422;5.514;2023-04-24T01:01:38;10.30;99.90
24226;DHT22;51462;51.422;5.514;2023-04-24T01:04:07;10.30;99.90
24226;DHT22;51462;51.422;5.514;2023-04-24T01:06:32;10.60;99.90
24226;DHT22;51462;51.422;5.514;2023-04-24T01:08:59;10.90;99.90
24226;DHT22;51462;51.422;5.514;2023-04-24T01:11:26;10.90;99.90
24226;DHT22;51462;51.422;5.514;2023-04-24T01:13:51;10.60;99.90
24226;DHT22;51462;51.422;5.514;2023-04-24T01:16:18;10.30;99.90
24226;DHT22;51462;51.422;5.514;2023-04-24T01:18:46;10.20;99.90
24226;DHT22;51462;51.422;5.514;2023-04-24T01:21:13;10.30;99.90
24226;DHT22;51462;51.422;5.514;2023-04-24T01:23:40;10.20;99.90
24226;DHT22;51462;51.422;5.514;2023-04-24T01:26:05;10.30;99.90
24226;DHT22;51462;51.422;5.514;2023-04-24T01:28:31;10.30;99.90
24226;DHT22;51462;51.422;5.514;2023-04-24T01:30:57;10.50;99.90
24226;DHT22;51462;51.422;5.514;2023-04-24T01:33:22;10.40;99.90
24226;DHT22;51462;51.422;5.514;2023-04-24T01:35:49;10.40;99.90
24226;DHT22;51462;51.422;5.514;2023-04-24T01:38:14;10.40;99.90
24226;DHT22;51462;51.422;5.514;2023-04-24T01:40:40;10.40;99.90
24226;DHT22;51462;51.422;5.514;2023-04-24T01:43:06;10.30;99.90
24226;DHT22;51462;51.422;5.514;2023-04-24T01:45:31;10.40;99.90
24226;DHT22;51462;51.422;5.514;2023-04-24T01:47:57;10.50;99.90
24226;DHT22;51462;51.422;5.514;2023-04-24T01:50:22;10.30;99.90
24226;DHT22;51462;51.422;5.514;2023-04-24T01:52:48;10.40;99.90
24226;DHT22;51462;51.422;5.514;2023-04-24T01:55:14;10.50;99.90
24226;DHT22;51462;51.422;5.514;2023-04-24T01:57:40;10.40;99.90
24226;DHT22;51462;51.422;5.514;2023-04-24T02:00:06;10.40;99.90
24226;DHT22;51462;51.422;5.514;2023-04-24T02:02:32;10.40;99.90
24226;DHT22;51462;51.422;5.514;2023-04-24T02:04:58;10.60;99.90
24226;DHT22;51462;51.422;5.514;2023-04-24T02:07:23;10.60;99.90
24226;DHT22;51462;51.422;5.514;2023-04-24T02:09:49;10.80;99.90
24226;DHT22;51462;51.422;5.514;2023-04-24T02:12:15;10.70;99.90
24226;DHT22;51462;51.422;5.514;2023-04-24T02:14:41;10.40;99.90
24226;DHT22;51462;51.422;5.514;2023-04-24T02:17:07;10.50;99.90
24226;DHT22;51462;51.422;5.514;2023-04-24T02:19:33;10.40;99.90
24226;DHT22;51462;51.422;5.514;2023-04-24T02:21:59;10.20;99.90
24226;DHT22;51462;51.422;5.514;2023-04-24T02:24:25;10.20;99.90
24226;DHT22;51462;51.422;5.514;2023-04-24T02:26:50;10.30;99.90
24226;DHT22;51462;51.422;5.514;2023-04-24T02:29:16;10.20;99.90
24226;DHT22;51462;51.422;5.514;2023-04-24T02:31:42;10.30;99.90
24226;DHT22;51462;51.422;5.514;2023-04-24T02:34:08;10.10;99.90
24226;DHT22;51462;51.422;5.514;2023-04-24T02:36:33;10.30;99.90
24226;DHT22;51462;51.422;5.514;2023-04-24T02:38:59;10.30;99.90
24226;DHT22;51462;51.422;5.514;2023-04-24T02:41:26;10.10;99.90
24226;DHT22;51462;51.422;5.514;2023-04-24T02:43:57;10.30;99.90
24226;DHT22;51462;51.422;5.514;2023-04-24T02:46:22;10.20;99.90
24226;DHT22;51462;51.422;5.514;2023-04-24T02:48:48;10.30;99.90
24226;DHT22;51462;51.422;5.514;2023-04-24T02:51:13;10.00;99.90
24226;DHT22;51462;51.422;5.514;2023-04-24T02:53:39;10.30;99.90
24226;DHT22;51462;51.422;5.514;2023-04-24T02:56:04;10.40;99.90
24226;DHT22;51462;51.422;5.514;2023-04-24T02:58:30;10.40;99.90
24226;DHT22;51462;51.422;5.514;2023-04-24T03:00:55;10.60;99.90
24226;DHT22;51462;51.422;5.514;2023-04-24T03:03:21;10.30;99.90
24226;DHT22;51462;51.422;5.514;2023-04-24T03:05:47;10.30;99.90
24226;DHT22;51462;51.422;5.514;2023-04-24T03:08:13;10.40;99.90
24226;DHT22;51462;51.422;5.514;2023-04-24T03:10:39;10.20;99.90
24226;DHT22;51462;51.422;5.514;2023-04-24T03:13:05;10.40;99.90
24226;DHT22;51462;51.422;5.514;2023-04-24T03:15:31;10.30;99.90
24226;DHT22;51462;51.422;5.514;2023-04-24T03:17:56;10.30;99.90
24226;DHT22;51462;51.422;5.514;2023-04-24T03:20:22;10.20;99.90
24226;DHT22;51462;51.422;5.514;2023-04-24T03:22:47;10.10;99.90
24226;DHT22;51462;51.422;5.514;2023-04-24T03:25:13;10.10;99.90
24226;DHT22;51462;51.422;5.514;2023-04-24T03:27:38;10.50;99.90
24226;DHT22;51462;51.422;5.514;2023-04-24T03:30:06;10.30;99.90
24226;DHT22;51462;51.422;5.514;2023-04-24T03:32:32;10.60;99.90
24226;DHT22;51462;51.422;5.514;2023-04-24T03:34:57;10.30;99.90
24226;DHT22;51462;51.422;5.514;2023-04-24T03:37:23;10.60;99.90
24226;DHT22;51462;51.422;5.514;2023-04-24T03:39:49;10.40;99.90
24226;DHT22;51462;51.422;5.514;2023-04-24T03:42:14;10.60;99.90
24226;DHT22;51462;51.422;5.514;2023-04-24T03:44:40;10.50;99.90
24226;DHT22;51462;51.422;5.514;2023-04-24T03:47:06;10.30;99.90
24226;DHT22;51462;51.422;5.514;2023-04-24T03:49:31;10.40;99.90
24226;DHT22;51462;51.422;5.514;2023-04-24T03:51:57;10.30;99.90
24226;DHT22;51462;51.422;5.514;2023-04-24T03:54:22;10.40;99.90
24226;DHT22;51462;51.422;5.514;2023-04-24T03:56:48;10.30;99.90
24226;DHT22;51462;51.422;5.514;2023-04-24T03:59:13;10.30;99.90
24226;DHT22;51462;51.422;5.514;2023-04-24T04:01:39;10.60;99.90
24226;DHT22;51462;51.422;5.514;2023-04-24T04:04:05;10.60;99.90
24226;DHT22;51462;51.422;5.514;2023-04-24T04:06:31;10.50;99.90
24226;DHT22;51462;51.422;5.514;2023-04-24T04:08:57;10.50;99.90
24226;DHT22;51462;51.422;5.514;2023-04-24T04:11:22;10.40;99.90
24226;DHT22;51462;51.422;5.514;2023-04-24T04:13:48;10.20;99.90
24226;DHT22;51462;51.422;5.514;2023-04-24T04:16:14;10.20;99.90
24226;DHT22;51462;51.422;5.514;2023-04-24T04:18:42;10.10;99.90
24226;DHT22;51462;51.422;5.514;2023-04-24T04:21:07;10.20;99.90
24226;DHT22;51462;51.422;5.514;2023-04-24T04:23:33;10.40;99.90
24226;DHT22;51462;51.422;5.514;2023-04-24T04:25:59;10.20;99.90
24226;DHT22;51462;51.422;5.514;2023-04-24T04:28:25;10.10;99.90
24226;DHT22;51462;51.422;5.514;2023-04-24T04:30:50;9.80;99.90
24226;DHT22;51462;51.422;5.514;2023-04-24T04:33:20;10.10;99.90
24226;DHT22;51462;51.422;5.514;2023-04-24T04:35:46;9.90;99.90
24226;DHT22;51462;51.422;5.514;2023-04-24T04:38:14;9.80;99.90
24226;DHT22;51462;51.422;5.514;2023-04-24T04:40:40;9.90;99.90
24226;DHT22;51462;51.422;5.514;2023-04-24T04:43:06;10.00;99.90
24226;DHT22;51462;51.422;5.514;2023-04-24T04:45:31;9.90;99.90
24226;DHT22;51462;51.422;5.514;2023-04-24T04:48:00;9.90;99.90
24226;DHT22;51462;51.422;5.514;2023-04-24T04:50:28;9.80;99.90
24226;DHT22;51462;51.422;5.514;2023-04-24T04:52:54;9.80;99.90
24226;DHT22;51462;51.422;5.514;2023-04-24T04:55:20;9.90;99.90
24226;DHT22;51462;51.422;5.514;2023-04-24T04:57:46;10.10;99.90
24226;DHT22;51462;51.422;5.514;2023-04-24T05:00:12;10.00;99.90
24226;DHT22;51462;51.422;5.514;2023-04-24T05:02:41;9.90;99.90
24226;DHT22;51462;51.422;5.514;2023-04-24T05:05:07;10.00;99.90
24226;DHT22;51462;51.422;5.514;2023-04-24T05:07:33;9.80;99.90
24226;DHT22;51462;51.422;5.514;2023-04-24T05:09:58;9.90;99.90
24226;DHT22;51462;51.422;5.514;2023-04-24T05:12:24;9.90;99.90
24226;DHT22;51462;51.422;5.514;2023-04-24T05:14:50;9.70;99.90
24226;DHT22;51462;51.422;5.514;2023-04-24T05:17:15;9.60;99.90
24226;DHT22;51462;51.422;5.514;2023-04-24T05:19:41;9.50;99.90
24226;DHT22;51462;51.422;5.514;2023-04-24T05:22:07;9.50;99.90
24226;DHT22;51462;51.422;5.514;2023-04-24T05:24:33;9.60;99.90
24226;DHT22;51462;51.422;5.514;2023-04-24T05:26:59;9.40;99.90
24226;DHT22;51462;51.422;5.514;2023-04-24T05:29:25;9.40;99.90
24226;DHT22;51462;51.422;5.514;2023-04-24T05:31:51;9.10;99.90
24226;DHT22;51462;51.422;5.514;2023-04-24T05:34:17;9.00;99.90
24226;DHT22;51462;51.422;5.514;2023-04-24T05:36:43;9.00;99.90
24226;DHT22;51462;51.422;5.514;2023-04-24T05:39:09;9.30;99.90
24226;DHT22;51462;51.422;5.514;2023-04-24T05:41:34;9.20;99.90
24226;DHT22;51462;51.422;5.514;2023-04-24T05:44:00;9.20;99.90
24226;DHT22;51462;51.422;5.514;2023-04-24T05:46:26;9.00;99.90
24226;DHT22;51462;51.422;5.514;2023-04-24T05:48:51;9.10;99.90
24226;DHT22;51462;51.422;5.514;2023-04-24T05:51:17;9.10;99.90
24226;DHT22;51462;51.422;5.514;2023-04-24T05:53:42;9.00;99.90
24226;DHT22;51462;51.422;5.514;2023-04-24T05:56:08;8.90;99.90
24226;DHT22;51462;51.422;5.514;2023-04-24T05:58:33;9.40;99.90
24226;DHT22;51462;51.422;5.514;2023-04-24T06:00:59;9.20;99.90
24226;DHT22;51462;51.422;5.514;2023-04-24T06:03:26;9.00;99.90
24226;DHT22;51462;51.422;5.514;2023-04-24T06:05:53;9.20;99.90
24226;DHT22;51462;51.422;5.514;2023-04-24T06:08:19;9.40;99.90
24226;DHT22;51462;51.422;5.514;2023-04-24T06:10:44;9.10;99.90
24226;DHT22;51462;51.422;5.514;2023-04-24T06:13:10;9.40;99.90
24226;DHT22;51462;51.422;5.514;2023-04-24T06:15:36;9.00;99.90
24226;DHT22;51462;51.422;5.514;2023-04-24T06:18:02;9.10;99.90
24226;DHT22;51462;51.422;5.514;2023-04-24T06:20:28;8.90;99.90
24226;DHT22;51462;51.422;5.514;2023-04-24T06:22:54;8.80;99.90
24226;DHT22;51462;51.422;5.514;2023-04-24T06:25:19;8.70;99.90
24226;DHT22;51462;51.422;5.514;2023-04-24T06:27:45;8.80;99.90
24226;DHT22;51462;51.422;5.514;2023-04-24T06:30:11;9.00;99.90
24226;DHT22;51462;51.422;5.514;2023-04-24T06:32:37;8.80;99.90
24226;DHT22;51462;51.422;5.514;2023-04-24T06:35:03;8.80;99.90
24226;DHT22;51462;51.422;5.514;2023-04-24T06:37:29;8.60;99.90
24226;DHT22;51462;51.422;5.514;2023-04-24T06:39:55;8.60;99.90
24226;DHT22;51462;51.422;5.514;2023-04-24T06:42:20;8.80;99.90
24226;DHT22;51462;51.422;5.514;2023-04-24T06:44:47;8.80;99.90
24226;DHT22;51462;51.422;5.514;2023-04-24T06:47:13;8.80;99.90
24226;DHT22;51462;51.422;5.514;2023-04-24T06:49:39;8.90;99.90
24226;DHT22;51462;51.422;5.514;2023-04-24T06:52:05;8.90;99.90
24226;DHT22;51462;51.422;5.514;2023-04-24T06:54:31;8.80;99.90
24226;DHT22;51462;51.422;5.514;2023-04-24T06:56:57;8.90;99.90
24226;DHT22;51462;51.422;5.514;2023-04-24T06:59:26;8.90;99.90
24226;DHT22;51462;51.422;5.514;2023-04-24T07:01:52;9.10;99.90
24226;DHT22;51462;51.422;5.514;2023-04-24T07:04:18;9.10;99.90
24226;DHT22;51462;51.422;5.514;2023-04-24T07:06:47;8.90;99.90
24226;DHT22;51462;51.422;5.514;2023-04-24T07:09:13;8.80;99.90
24226;DHT22;51462;51.422;5.514;2023-04-24T07:11:46;8.90;99.90
24226;DHT22;51462;51.422;5.514;2023-04-24T07:14:12;9.00;99.90
24226;DHT22;51462;51.422;5.514;2023-04-24T07:16:38;9.00;99.90
24226;DHT22;51462;51.422;5.514;2023-04-24T07:19:04;9.00;99.90
24226;DHT22;51462;51.422;5.514;2023-04-24T07:21:29;8.70;99.90
24226;DHT22;51462;51.422;5.514;2023-04-24T07:23:59;8.90;99.90
24226;DHT22;51462;51.422;5.514;2023-04-24T07:26:26;8.90;99.90
24226;DHT22;51462;51.422;5.514;2023-04-24T07:28:52;8.80;99.90
24226;DHT22;51462;51.422;5.514;2023-04-24T07:31:18;9.00;99.90
24226;DHT22;51462;51.422;5.514;2023-04-24T07:33:43;9.10;99.90
24226;DHT22;51462;51.422;5.514;2023-04-24T07:36:09;9.20;99.90
24226;DHT22;51462;51.422;5.514;2023-04-24T07:38:41;8.90;99.90
24226;DHT22;51462;51.422;5.514;2023-04-24T07:41:06;8.80;99.90
24226;DHT22;51462;51.422;5.514;2023-04-24T07:43:32;8.80;99.90
24226;DHT22;51462;51.422;5.514;2023-04-24T07:45:57;8.90;99.90
24226;DHT22;51462;51.422;5.514;2023-04-24T07:48:23;9.00;99.90
24226;DHT22;51462;51.422;5.514;2023-04-24T07:50:51;8.70;99.90
24226;DHT22;51462;51.422;5.514;2023-04-24T07:53:16;8.70;99.90
24226;DHT22;51462;51.422;5.514;2023-04-24T07:55:42;8.50;99.90
24226;DHT22;51462;51.422;5.514;2023-04-24T07:58:08;8.80;99.90
24226;DHT22;51462;51.422;5.514;2023-04-24T08:00:34;8.90;99.90
24226;DHT22;51462;51.422;5.514;2023-04-24T08:03:00;8.70;99.90
24226;DHT22;51462;51.422;5.514;2023-04-24T08:05:25;8.60;99.90
24226;DHT22;51462;51.422;5.514;2023-04-24T08:07:52;8.70;99.90
24226;DHT22;51462;51.422;5.514;2023-04-24T08:10:18;9.00;99.90
24226;DHT22;51462;51.422;5.514;2023-04-24T08:12:44;8.90;99.90
24226;DHT22;51462;51.422;5.514;2023-04-24T08:15:10;9.00;99.90
24226;DHT22;51462;51.422;5.514;2023-04-24T08:17:35;8.90;99.90
24226;DHT22;51462;51.422;5.514;2023-04-24T08:20:05;8.80;99.90
24226;DHT22;51462;51.422;5.514;2023-04-24T08:22:31;8.70;99.90
24226;DHT22;51462;51.422;5.514;2023-04-24T08:25:00;8.70;99.90
24226;DHT22;51462;51.422;5.514;2023-04-24T08:27:26;8.90;99.90
24226;DHT22;51462;51.422;5.514;2023-04-24T08:29:55;8.70;99.90
24226;DHT22;51462;51.422;5.514;2023-04-24T08:32:20;8.70;99.90
24226;DHT22;51462;51.422;5.514;2023-04-24T08:34:46;8.70;99.90
24226;DHT22;51462;51.422;5.514;2023-04-24T08:37:12;8.80;99.90
24226;DHT22;51462;51.422;5.514;2023-04-24T08:39:38;8.70;99.90
24226;DHT22;51462;51.422;5.514;2023-04-24T08:42:05;8.70;99.90
24226;DHT22;51462;51.422;5.514;2023-04-24T08:44:34;8.70;99.90
24226;DHT22;51462;51.422;5.514;2023-04-24T08:47:02;8.90;99.90
24226;DHT22;51462;51.422;5.514;2023-04-24T08:49:28;8.80;99.90
24226;DHT22;51462;51.422;5.514;2023-04-24T08:51:54;9.10;99.90
24226;DHT22;51462;51.422;5.514;2023-04-24T08:54:21;9.00;99.90
24226;DHT22;51462;51.422;5.514;2023-04-24T08:56:48;8.80;99.90
24226;DHT22;51462;51.422;5.514;2023-04-24T08:59:14;9.00;99.90
24226;DHT22;51462;51.422;5.514;2023-04-24T09:01:40;9.20;99.90
24226;DHT22;51462;51.422;5.514;2023-04-24T09:04:08;9.20;99.90
24226;DHT22;51462;51.422;5.514;2023-04-24T09:06:35;9.20;99.90
24226;DHT22;51462;51.422;5.514;2023-04-24T09:09:02;9.30;99.90
24226;DHT22;51462;51.422;5.514;2023-04-24T09:11:30;9.50;99.90
24226;DHT22;51462;51.422;5.514;2023-04-24T09:13:56;9.70;99.90
24226;DHT22;51462;51.422;5.514;2023-04-24T09:16:22;9.20;99.90
24226;DHT22;51462;51.422;5.514;2023-04-24T09:18:49;9.10;99.90
24226;DHT22;51462;51.422;5.514;2023-04-24T09:21:15;9.00;99.90
24226;DHT22;51462;51.422;5.514;2023-04-24T09:23:41;9.50;99.90
24226;DHT22;51462;51.422;5.514;2023-04-24T09:26:09;9.10;99.90
24226;DHT22;51462;51.422;5.514;2023-04-24T09:28:36;9.00;99.90
24226;DHT22;51462;51.422;5.514;2023-04-24T09:31:22;9.30;99.90
24226;DHT22;51462;51.422;5.514;2023-04-24T09:33:59;9.30;99.90
24226;DHT22;51462;51.422;5.514;2023-04-24T09:36:30;9.50;99.90
24226;DHT22;51462;51.422;5.514;2023-04-24T09:39:00;9.30;99.90
24226;DHT22;51462;51.422;5.514;2023-04-24T09:41:27;9.40;99.90
24226;DHT22;51462;51.422;5.514;2023-04-24T09:43:56;9.50;99.90
24226;DHT22;51462;51.422;5.514;2023-04-24T09:46:30;9.60;99.90
24226;DHT22;51462;51.422;5.514;2023-04-24T09:48:57;9.50;99.90
24226;DHT22;51462;51.422;5.514;2023-04-24T09:51:36;9.50;99.90
24226;DHT22;51462;51.422;5.514;2023-04-24T09:54:03;9.30;99.90
24226;DHT22;51462;51.422;5.514;2023-04-24T09:56:32;9.60;99.90
24226;DHT22;51462;51.422;5.514;2023-04-24T09:59:05;9.50;99.90
24226;DHT22;51462;51.422;5.514;2023-04-24T10:01:31;9.40;99.90
24226;DHT22;51462;51.422;5.514;2023-04-24T10:03:57;9.60;99.90
24226;DHT22;51462;51.422;5.514;2023-04-24T10:06:23;9.60;99.90
24226;DHT22;51462;51.422;5.514;2023-04-24T10:08:56;9.70;99.90
24226;DHT22;51462;51.422;5.514;2023-04-24T10:11:25;9.70;99.90
24226;DHT22;51462;51.422;5.514;2023-04-24T10:13:52;9.90;99.90
24226;DHT22;51462;51.422;5.514;2023-04-24T10:16:18;10.00;99.90
24226;DHT22;51462;51.422;5.514;2023-04-24T10:18:44;9.80;99.90
24226;DHT22;51462;51.422;5.514;2023-04-24T10:21:10;9.90;99.90
24226;DHT22;51462;51.422;5.514;2023-04-24T10:23:36;10.00;99.90
24226;DHT22;51462;51.422;5.514;2023-04-24T10:26:03;9.70;99.90
24226;DHT22;51462;51.422;5.514;2023-04-24T10:28:30;9.70;99.90
24226;DHT22;51462;51.422;5.514;2023-04-24T10:30:57;9.80;99.90
24226;DHT22;51462;51.422;5.514;2023-04-24T10:33:24;9.90;99.90
24226;DHT22;51462;51.422;5.514;2023-04-24T10:35:50;9.90;99.90
24226;DHT22;51462;51.422;5.514;2023-04-24T10:38:24;10.00;99.90
24226;DHT22;51462;51.422;5.514;2023-04-24T10:40:50;10.00;99.90
24226;DHT22;51462;51.422;5.514;2023-04-24T10:43:17;9.90;99.90
24226;DHT22;51462;51.422;5.514;2023-04-24T10:46:04;9.90;99.90
24226;DHT22;51462;51.422;5.514;2023-04-24T10:48:30;9.70;99.90
24226;DHT22;51462;51.422;5.514;2023-04-24T10:50:57;9.80;99.90
24226;DHT22;51462;51.422;5.514;2023-04-24T10:53:25;10.10;99.90
24226;DHT22;51462;51.422;5.514;2023-04-24T10:56:08;9.80;99.90
24226;DHT22;51462;51.422;5.514;2023-04-24T10:58:50;10.00;99.90
24226;DHT22;51462;51.422;5.514;2023-04-24T11:01:33;9.80;99.90
24226;DHT22;51462;51.422;5.514;2023-04-24T11:04:00;10.00;99.90
24226;DHT22;51462;51.422;5.514;2023-04-24T11:06:33;10.40;99.90
24226;DHT22;51462;51.422;5.514;2023-04-24T11:11:29;10.20;99.90
24226;DHT22;51462;51.422;5.514;2023-04-24T11:16:33;10.30;99.90
24226;DHT22;51462;51.422;5.514;2023-04-24T11:19:06;10.20;99.90
24226;DHT22;51462;51.422;5.514;2023-04-24T11:21:48;10.30;99.90
24226;DHT22;51462;51.422;5.514;2023-04-24T11:24:24;10.20;99.90
24226;DHT22;51462;51.422;5.514;2023-04-24T11:27:14;10.20;99.90
24226;DHT22;51462;51.422;5.514;2023-04-24T11:29:42;10.10;99.90
24226;DHT22;51462;51.422;5.514;2023-04-24T11:32:41;10.10;99.90
24226;DHT22;51462;51.422;5.514;2023-04-24T11:37:47;10.00;99.90
24226;DHT22;51462;51.422;5.514;2023-04-24T11:40:15;9.90;99.90
24226;DHT22;51462;51.422;5.514;2023-04-24T11:42:43;9.90;99.90
24226;DHT22;51462;51.422;5.514;2023-04-24T11:45:22;10.20;99.90
24226;DHT22;51462;51.422;5.514;2023-04-24T11:47:48;10.20;99.90
24226;DHT22;51462;51.422;5.514;2023-04-24T11:50:15;10.20;99.90
24226;DHT22;51462;51.422;5.514;2023-04-24T11:52:43;10.30;99.90
24226;DHT22;51462;51.422;5.514;2023-04-24T11:57:58;10.20;99.90
24226;DHT22;51462;51.422;5.514;2023-04-24T12:00:29;10.30;99.90
24226;DHT22;51462;51.422;5.514;2023-04-24T12:03:11;10.20;99.90
24226;DHT22;51462;51.422;5.514;2023-04-24T12:05:37;10.20;99.90
24226;DHT22;51462;51.422;5.514;2023-04-24T12:08:04;10.30;99.90
24226;DHT22;51462;51.422;5.514;2023-04-24T12:10:31;10.40;99.90
24226;DHT22;51462;51.422;5.514;2023-04-24T12:12:58;10.50;99.90
24226;DHT22;51462;51.422;5.514;2023-04-24T12:15:24;10.50;99.90
24226;DHT22;51462;51.422;5.514;2023-04-24T12:17:51;10.70;99.90
24226;DHT22;51462;51.422;5.514;2023-04-24T12:20:22;10.60;99.90
24226;DHT22;51462;51.422;5.514;2023-04-24T12:22:51;10.50;99.90
24226;DHT22;51462;51.422;5.514;2023-04-24T12:25:21;10.40;99.90
24226;DHT22;51462;51.422;5.514;2023-04-24T12:27:53;10.60;99.90
24226;DHT22;51462;51.422;5.514;2023-04-24T12:30:21;10.70;99.90
24226;DHT22;51462;51.422;5.514;2023-04-24T12:32:48;10.80;99.90
24226;DHT22;51462;51.422;5.514;2023-04-24T12:35:19;10.80;99.90
24226;DHT22;51462;51.422;5.514;2023-04-24T12:37:46;10.80;99.90
24226;DHT22;51462;51.422;5.514;2023-04-24T12:40:12;10.70;99.90
24226;DHT22;51462;51.422;5.514;2023-04-24T12:42:44;10.60;99.90
24226;DHT22;51462;51.422;5.514;2023-04-24T12:45:09;10.80;99.90
24226;DHT22;51462;51.422;5.514;2023-04-24T12:47:38;10.80;99.90
24226;DHT22;51462;51.422;5.514;2023-04-24T12:50:04;10.80;99.90
24226;DHT22;51462;51.422;5.514;2023-04-24T12:52:30;10.70;99.90
24226;DHT22;51462;51.422;5.514;2023-04-24T12:54:58;10.90;99.90
24226;DHT22;51462;51.422;5.514;2023-04-24T12:57:24;11.10;99.90
24226;DHT22;51462;51.422;5.514;2023-04-24T12:59:51;11.10;99.90
24226;DHT22;51462;51.422;5.514;2023-04-24T13:02:17;10.80;99.90
24226;DHT22;51462;51.422;5.514;2023-04-24T13:04:49;10.70;99.90
24226;DHT22;51462;51.422;5.514;2023-04-24T13:07:15;10.70;99.90
24226;DHT22;51462;51.422;5.514;2023-04-24T13:09:42;11.10;99.90
24226;DHT22;51462;51.422;5.514;2023-04-24T13:12:08;11.00;99.90
24226;DHT22;51462;51.422;5.514;2023-04-24T13:14:35;11.10;99.90
24226;DHT22;51462;51.422;5.514;2023-04-24T13:17:01;11.00;99.90
24226;DHT22;51462;51.422;5.514;2023-04-24T13:19:27;11.10;99.90
24226;DHT22;51462;51.422;5.514;2023-04-24T13:21:54;11.10;99.90
24226;DHT22;51462;51.422;5.514;2023-04-24T13:24:21;11.00;99.90
24226;DHT22;51462;51.422;5.514;2023-04-24T13:26:50;10.90;99.90
24226;DHT22;51462;51.422;5.514;2023-04-24T13:29:16;10.80;99.90
24226;DHT22;51462;51.422;5.514;2023-04-24T13:31:42;10.90;99.90
24226;DHT22;51462;51.422;5.514;2023-04-24T13:34:07;11.00;99.90
24226;DHT22;51462;51.422;5.514;2023-04-24T13:36:33;11.00;99.90
24226;DHT22;51462;51.422;5.514;2023-04-24T13:38:58;11.10;99.90
24226;DHT22;51462;51.422;5.514;2023-04-24T13:41:24;11.00;99.90
24226;DHT22;51462;51.422;5.514;2023-04-24T13:43:50;11.00;99.90
24226;DHT22;51462;51.422;5.514;2023-04-24T13:46:16;10.90;99.90
24226;DHT22;51462;51.422;5.514;2023-04-24T13:48:41;10.90;99.90
24226;DHT22;51462;51.422;5.514;2023-04-24T13:51:07;11.00;99.90
24226;DHT22;51462;51.422;5.514;2023-04-24T13:53:32;11.10;99.90
24226;DHT22;51462;51.422;5.514;2023-04-24T13:56:01;10.90;99.90
24226;DHT22;51462;51.422;5.514;2023-04-24T13:58:27;11.10;99.90
24226;DHT22;51462;51.422;5.514;2023-04-24T14:00:53;10.80;99.90
24226;DHT22;51462;51.422;5.514;2023-04-24T14:03:18;11.00;99.90
24226;DHT22;51462;51.422;5.514;2023-04-24T14:05:44;11.00;99.90
24226;DHT22;51462;51.422;5.514;2023-04-24T14:08:09;11.20;99.90
24226;DHT22;51462;51.422;5.514;2023-04-24T14:10:35;11.20;99.90
24226;DHT22;51462;51.422;5.514;2023-04-24T14:13:01;11.20;99.90
24226;DHT22;51462;51.422;5.514;2023-04-24T14:15:26;10.90;99.90
24226;DHT22;51462;51.422;5.514;2023-04-24T14:17:52;10.90;99.90
24226;DHT22;51462;51.422;5.514;2023-04-24T14:20:17;11.10;99.90
24226;DHT22;51462;51.422;5.514;2023-04-24T14:22:43;11.20;99.90
24226;DHT22;51462;51.422;5.514;2023-04-24T14:25:09;11.00;99.90
24226;DHT22;51462;51.422;5.514;2023-04-24T14:27:34;11.30;99.90
24226;DHT22;51462;51.422;5.514;2023-04-24T14:30:00;11.30;99.90
24226;DHT22;51462;51.422;5.514;2023-04-24T14:32:26;10.90;99.90
24226;DHT22;51462;51.422;5.514;2023-04-24T14:34:52;11.10;99.90
24226;DHT22;51462;51.422;5.514;2023-04-24T14:37:17;10.90;99.90
24226;DHT22;51462;51.422;5.514;2023-04-24T14:39:43;10.70;99.90
24226;DHT22;51462;51.422;5.514;2023-04-24T14:42:08;10.90;99.90
24226;DHT22;51462;51.422;5.514;2023-04-24T14:44:34;10.90;99.90
24226;DHT22;51462;51.422;5.514;2023-04-24T14:47:00;11.00;99.90
24226;DHT22;51462;51.422;5.514;2023-04-24T14:49:26;10.60;99.90
24226;DHT22;51462;51.422;5.514;2023-04-24T14:51:51;10.80;99.90
24226;DHT22;51462;51.422;5.514;2023-04-24T14:54:17;10.90;99.90
24226;DHT22;51462;51.422;5.514;2023-04-24T14:56:43;10.70;99.90
24226;DHT22;51462;51.422;5.514;2023-04-24T14:59:10;10.90;99.90
24226;DHT22;51462;51.422;5.514;2023-04-24T15:01:35;11.30;99.90
24226;DHT22;51462;51.422;5.514;2023-04-24T15:04:01;11.30;99.90
24226;DHT22;51462;51.422;5.514;2023-04-24T15:06:26;11.30;99.90
24226;DHT22;51462;51.422;5.514;2023-04-24T15:08:52;11.10;99.90
24226;DHT22;51462;51.422;5.514;2023-04-24T15:11:18;11.20;99.90
24226;DHT22;51462;51.422;5.514;2023-04-24T15:13:43;11.30;99.90
24226;DHT22;51462;51.422;5.514;2023-04-24T15:16:12;11.70;99.90
24226;DHT22;51462;51.422;5.514;2023-04-24T15:18:37;11.80;99.90
24226;DHT22;51462;51.422;5.514;2023-04-24T15:21:03;11.80;99.90
24226;DHT22;51462;51.422;5.514;2023-04-24T15:23:29;11.60;99.90
24226;DHT22;51462;51.422;5.514;2023-04-24T15:25:54;11.70;99.90
24226;DHT22;51462;51.422;5.514;2023-04-24T15:28:20;11.80;99.90
24226;DHT22;51462;51.422;5.514;2023-04-24T15:30:47;12.20;99.90
24226;DHT22;51462;51.422;5.514;2023-04-24T15:33:12;12.70;99.90
24226;DHT22;51462;51.422;5.514;2023-04-24T15:35:38;12.70;99.90
24226;DHT22;51462;51.422;5.514;2023-04-24T15:38:04;12.80;99.90
24226;DHT22;51462;51.422;5.514;2023-04-24T15:40:30;13.20;99.90
24226;DHT22;51462;51.422;5.514;2023-04-24T15:42:55;13.10;99.90
24226;DHT22;51462;51.422;5.514;2023-04-24T15:45:21;13.20;99.90